logo dgac
Miércoles 24 de Julio del 2024
Buscar por aerodromo o helipuerto
Ingrese nombre de aeródromo, localidad o designador OACI:

Aeródromo: La Independencia (PUB) (SCRG)

Ubicación: Rancagua, VI Región, Chile (34º 10' 30'' S, 70º 46' 32'' W) Ver ubicación en el mapa

Pistas

Luces
Orientación Dimensión Pendiente Superficie Resistencia APCH THR RWY PAPI
03/21 1603 X 23 m 0,21 ASPH 22.727 kg AUW/1 No No No
Horas de operación HJ
Elevación 491m/ 1610 FT ft
Otra Información Adm :DGAC
Uso : PUB
TEL DGAC 224363133
email : aro.rancagua@dgac.gob.cl

Ubicado a 3 km W de Plaza de Armas de la Comuna de Rancagua.

Otra información ver AIP-Chile Volumen I AD 3.9-17.1-R
CCCM/FCCV Descargar CCCM/FCCV
andera de Chile
Mapa de La Independencia (PUB) (SCRG)

Último METAR

METAR SCRG 232200Z 03002KT 7000 NSC 10/06 Q1023

Último TAF

TAF SCRG 231302Z 2314/2324 02004KT 0500 FG BKN002 OVC005 TX11/ 2319Z TN03/2312Z BECMG 2316/2318 VRB02KT 4000 BR SCT008 BKN012 BECMG 2319/2321 18007KT 6000 SCT020 BKN050

Últimas fotos cámaras

Imagen aerodromo La Independencia (PUB) (SCRG) Norte tomada el 24-07-2024 01:57:04 Imagen aerodromo La Independencia (PUB) (SCRG) Sur tomada el 24-07-2024 01:57:10

Último NOTAM

C3145/24 NOTAMN Q)SCEZ/QMWHW/IV/BO/A/000/999/3410S07047W005 A)SCRG B)2407291230 C)2408032231 E)FRANJA DE SEGURIDAD RWY 03/21 WIP, CTN INSTRUCCIONES: RANCAGUA TWR 126.65MHZ RANCAGUA GNDC 121.9MHZ